createdAt,value
2022-09-28T00:01:16.976Z,99.60
2022-09-28T00:03:45.181Z,99.60
2022-09-28T00:06:14.391Z,99.70
2022-09-28T00:08:41.633Z,99.60
2022-09-28T00:11:13.720Z,99.70
2022-09-28T00:13:43.936Z,99.70
2022-09-28T00:16:18.072Z,99.70
2022-09-28T00:18:45.972Z,99.60
2022-09-28T00:21:17.314Z,99.70
2022-09-28T00:24:03.787Z,99.70
2022-09-28T00:26:33.942Z,99.70
2022-09-28T00:29:03.171Z,99.70
2022-09-28T00:31:33.115Z,99.80
2022-09-28T00:34:02.312Z,99.90
2022-09-28T00:36:31.599Z,99.70
2022-09-28T00:38:59.693Z,99.60
2022-09-28T00:41:28.397Z,99.70
2022-09-28T00:44:35.993Z,99.70
2022-09-28T00:47:18.493Z,99.70
2022-09-28T00:50:36.882Z,99.70
2022-09-28T00:53:17.334Z,99.70
2022-09-28T00:55:56.899Z,99.70
2022-09-28T00:58:35.119Z,99.80
2022-09-28T01:01:03.706Z,99.80
2022-09-28T01:03:32.407Z,99.90
2022-09-28T01:06:02.541Z,99.90
2022-09-28T01:08:32.930Z,99.90
2022-09-28T01:11:00.822Z,99.90
2022-09-28T01:13:31.553Z,99.90
2022-09-28T01:16:23.523Z,99.90
2022-09-28T01:19:12.285Z,99.90
2022-09-28T01:22:24.344Z,99.90
2022-09-28T01:25:11.367Z,99.90
2022-09-28T01:28:06.470Z,99.90
2022-09-28T01:30:59.880Z,99.90
2022-09-28T01:33:37.021Z,99.90
2022-09-28T01:36:27.799Z,99.90
2022-09-28T01:39:07.890Z,99.90
2022-09-28T01:41:40.297Z,99.90
2022-09-28T01:44:16.150Z,99.90
2022-09-28T01:46:46.937Z,99.90
2022-09-28T01:49:21.452Z,99.90
2022-09-28T01:51:59.345Z,99.90
2022-09-28T01:54:36.176Z,99.90
2022-09-28T01:57:41.989Z,99.90
2022-09-28T02:00:14.579Z,99.90
2022-09-28T02:03:07.151Z,99.90
2022-09-28T02:05:50.534Z,99.90
2022-09-28T02:08:28.438Z,99.90
2022-09-28T02:11:13.135Z,99.90
2022-09-28T02:13:52.687Z,99.90
2022-09-28T02:16:43.444Z,99.90
2022-09-28T02:19:20.968Z,99.90
2022-09-28T02:22:25.193Z,99.90
2022-09-28T02:25:08.413Z,99.90
2022-09-28T02:27:50.567Z,99.90
2022-09-28T02:30:18.232Z,99.90
2022-09-28T02:32:51.237Z,99.90
2022-09-28T02:35:20.026Z,99.90
2022-09-28T02:37:49.438Z,99.90
2022-09-28T02:40:25.220Z,99.90
2022-09-28T02:43:31.007Z,99.90
2022-09-28T02:46:44.932Z,99.90
2022-09-28T02:49:48.047Z,99.90
2022-09-28T02:52:41.817Z,99.90
2022-09-28T02:56:11.163Z,99.90
2022-09-28T02:59:06.350Z,99.90
2022-09-28T03:02:02.752Z,99.90
2022-09-28T03:05:06.428Z,99.90
2022-09-28T03:07:46.533Z,99.90
2022-09-28T03:10:48.624Z,99.90
2022-09-28T03:13:17.710Z,99.90
2022-09-28T03:15:48.572Z,99.90
2022-09-28T03:18:16.742Z,99.90
2022-09-28T03:20:43.784Z,99.90
2022-09-28T03:23:26.131Z,99.90
2022-09-28T03:25:53.066Z,99.90
2022-09-28T03:28:21.370Z,99.90
2022-09-28T03:30:49.571Z,99.90
2022-09-28T03:33:16.438Z,99.90
2022-09-28T03:35:48.162Z,99.90
2022-09-28T03:38:18.576Z,99.90
2022-09-28T03:40:54.116Z,99.90
2022-09-28T03:43:21.598Z,99.90
2022-09-28T03:45:56.266Z,99.90
2022-09-28T03:48:29.881Z,99.90
2022-09-28T03:51:02.484Z,99.90
2022-09-28T03:53:30.093Z,99.90
2022-09-28T03:56:07.921Z,99.90
2022-09-28T03:58:35.371Z,99.90
2022-09-28T04:01:16.563Z,99.90
2022-09-28T04:03:46.424Z,99.90
2022-09-28T04:06:14.255Z,99.90
2022-09-28T04:08:41.175Z,99.90
2022-09-28T04:11:08.884Z,99.90
2022-09-28T04:13:36.998Z,99.90
2022-09-28T04:16:04.997Z,99.90
2022-09-28T04:18:34.476Z,99.90
2022-09-28T04:21:30.304Z,99.90
2022-09-28T04:24:03.943Z,99.90
2022-09-28T04:26:30.823Z,99.90
2022-09-28T04:29:16.334Z,99.90
2022-09-28T04:31:53.741Z,99.90
2022-09-28T04:34:24.516Z,99.90
2022-09-28T04:36:51.326Z,99.90
2022-09-28T04:39:19.539Z,99.90
2022-09-28T04:41:52.947Z,99.90
2022-09-28T04:44:19.768Z,99.90
2022-09-28T04:46:47.813Z,99.90
2022-09-28T04:49:36.960Z,99.90
2022-09-28T04:52:18.335Z,99.90
2022-09-28T04:54:47.893Z,99.90
2022-09-28T04:57:14.748Z,99.90
2022-09-28T04:59:41.656Z,99.90
2022-09-28T05:02:09.031Z,99.90
2022-09-28T05:05:01.840Z,99.90
2022-09-28T05:08:01.445Z,99.90
2022-09-28T05:10:28.324Z,99.90
2022-09-28T05:12:55.141Z,99.90
2022-09-28T05:15:21.924Z,99.90
2022-09-28T05:17:49.001Z,99.90
2022-09-28T05:20:42.042Z,99.90
2022-09-28T05:23:13.642Z,99.90
2022-09-28T05:25:43.345Z,99.90
2022-09-28T05:28:29.230Z,99.90
2022-09-28T05:31:34.877Z,99.90
2022-09-28T05:34:14.047Z,99.90
2022-09-28T05:36:42.659Z,99.90
2022-09-28T05:39:09.686Z,99.90
2022-09-28T05:41:36.547Z,99.90
2022-09-28T05:44:03.399Z,99.90
2022-09-28T05:46:30.934Z,99.90
2022-09-28T05:49:00.586Z,99.90
2022-09-28T05:51:28.013Z,99.90
2022-09-28T05:53:55.773Z,99.90
2022-09-28T05:56:24.741Z,99.90
2022-09-28T05:58:52.681Z,99.90
2022-09-28T06:01:21.896Z,99.90
2022-09-28T06:03:49.260Z,99.90
2022-09-28T06:06:16.475Z,99.90
2022-09-28T06:08:46.207Z,99.90
2022-09-28T06:11:32.597Z,99.90
2022-09-28T06:14:04.999Z,99.90
2022-09-28T06:16:32.728Z,99.90
2022-09-28T06:18:59.613Z,99.90
2022-09-28T06:21:38.665Z,99.90
2022-09-28T06:24:07.053Z,99.90
2022-09-28T06:26:35.388Z,99.90
2022-09-28T06:29:03.451Z,99.90
2022-09-28T06:31:31.122Z,99.90
2022-09-28T06:33:59.255Z,99.90
2022-09-28T06:36:29.181Z,99.90
2022-09-28T06:38:56.012Z,99.90
2022-09-28T06:41:23.488Z,99.90
2022-09-28T06:43:50.291Z,99.90
2022-09-28T06:46:38.071Z,99.90
2022-09-28T06:49:19.550Z,99.90
2022-09-28T06:52:15.762Z,99.90
2022-09-28T06:55:11.558Z,99.90
2022-09-28T06:57:56.311Z,99.90
2022-09-28T07:00:23.483Z,99.90
2022-09-28T07:02:50.346Z,99.90
2022-09-28T07:05:53.902Z,99.90
2022-09-28T07:08:41.027Z,99.90
2022-09-28T07:11:40.254Z,99.90
2022-09-28T07:14:46.611Z,99.90
2022-09-28T07:17:14.872Z,99.90
2022-09-28T07:19:43.126Z,99.90
2022-09-28T07:22:18.488Z,99.90
2022-09-28T07:24:48.284Z,99.90
2022-09-28T07:27:40.755Z,99.90
2022-09-28T07:30:27.919Z,99.90
2022-09-28T07:33:12.525Z,99.90
2022-09-28T07:35:55.703Z,99.90
2022-09-28T07:38:28.677Z,99.90
2022-09-28T07:41:11.840Z,99.90
2022-09-28T07:43:44.008Z,99.90
2022-09-28T07:46:13.531Z,99.90
2022-09-28T07:48:49.450Z,99.90
2022-09-28T07:51:34.935Z,99.90
2022-09-28T07:54:20.460Z,99.90
2022-09-28T07:57:03.809Z,99.80
2022-09-28T07:59:40.762Z,99.90
2022-09-28T08:02:41.117Z,99.60
2022-09-28T08:05:10.622Z,99.60
2022-09-28T08:07:38.252Z,99.70
2022-09-28T08:10:08.492Z,99.90
2022-09-28T08:13:10.935Z,99.70
2022-09-28T08:16:05.107Z,99.40
2022-09-28T08:18:37.599Z,99.60
2022-09-28T08:21:24.652Z,99.00
2022-09-28T08:23:52.826Z,98.90
2022-09-28T08:26:19.843Z,99.20
2022-09-28T08:28:47.833Z,99.30
2022-09-28T08:31:33.292Z,99.30
2022-09-28T08:34:29.104Z,98.80
2022-09-28T08:37:13.239Z,98.80
2022-09-28T08:40:25.806Z,98.90
2022-09-28T08:43:44.463Z,98.60
2022-09-28T08:46:42.611Z,98.40
2022-09-28T08:49:47.208Z,98.40
2022-09-28T08:52:38.080Z,98.10
2022-09-28T08:55:29.890Z,97.70
2022-09-28T08:58:25.912Z,97.00
2022-09-28T09:00:54.299Z,97.50
2022-09-28T09:03:35.953Z,97.60
2022-09-28T09:06:41.410Z,97.80
2022-09-28T09:09:46.888Z,97.40
2022-09-28T09:13:13.915Z,97.30
2022-09-28T09:16:14.518Z,97.40
2022-09-28T09:19:22.703Z,97.20
2022-09-28T09:22:18.066Z,96.70
2022-09-28T09:24:51.243Z,96.30
2022-09-28T09:27:21.119Z,96.30
2022-09-28T09:30:09.212Z,96.00
2022-09-28T09:32:59.004Z,96.30
2022-09-28T09:35:54.378Z,96.40
2022-09-28T09:39:13.565Z,96.40
2022-09-28T09:42:37.894Z,96.70
2022-09-28T09:46:34.651Z,96.40
2022-09-28T09:49:50.520Z,95.90
2022-09-28T09:52:46.463Z,95.60
2022-09-28T09:55:29.841Z,95.10
2022-09-28T09:58:31.489Z,95.10
2022-09-28T10:01:19.375Z,94.60
2022-09-28T10:04:43.212Z,94.70
2022-09-28T10:07:51.197Z,94.40
2022-09-28T10:10:33.887Z,94.70
2022-09-28T10:13:09.421Z,95.90
2022-09-28T10:15:37.191Z,94.30
2022-09-28T10:18:19.817Z,93.90
2022-09-28T10:21:25.918Z,94.70
2022-09-28T10:24:03.631Z,93.40
2022-09-28T10:26:40.369Z,92.00
2022-09-28T10:29:21.365Z,91.90
2022-09-28T10:31:52.630Z,90.70
2022-09-28T10:34:50.192Z,91.40
2022-09-28T10:37:19.926Z,87.40
2022-09-28T10:39:58.165Z,86.80
2022-09-28T10:42:32.277Z,85.10
2022-09-28T10:45:20.565Z,84.80
2022-09-28T10:47:47.855Z,86.20
2022-09-28T10:50:27.893Z,83.90
2022-09-28T10:53:32.381Z,78.60
2022-09-28T10:56:22.578Z,78.70
2022-09-28T10:58:56.206Z,80.20
2022-09-28T11:01:34.380Z,80.50
2022-09-28T11:04:10.397Z,81.30
2022-09-28T11:06:41.809Z,84.00
2022-09-28T11:09:34.543Z,85.10
2022-09-28T11:12:15.030Z,85.60
2022-09-28T11:14:44.261Z,87.70
2022-09-28T11:17:31.291Z,87.30
2022-09-28T11:20:28.143Z,88.50
2022-09-28T11:23:00.124Z,90.20
2022-09-28T11:25:32.105Z,89.80
2022-09-28T11:28:04.391Z,90.10
2022-09-28T11:30:49.908Z,90.90
2022-09-28T11:33:47.449Z,90.70
2022-09-28T11:37:06.405Z,90.40
2022-09-28T11:40:11.106Z,90.50
2022-09-28T11:46:14.397Z,90.40
2022-09-28T11:48:54.887Z,89.90
2022-09-28T11:51:30.797Z,90.00
2022-09-28T11:54:28.988Z,89.50
2022-09-28T11:57:01.203Z,90.20
2022-09-28T11:59:41.562Z,90.10
2022-09-28T12:02:23.513Z,90.10
2022-09-28T12:05:04.480Z,90.10
2022-09-28T12:07:40.370Z,90.50
2022-09-28T12:10:55.381Z,90.50
2022-09-28T12:13:44.550Z,91.00
2022-09-28T12:17:04.166Z,90.80
2022-09-28T12:19:30.211Z,90.20
2022-09-28T12:22:12.049Z,89.00
2022-09-28T12:24:51.031Z,88.30
2022-09-28T12:27:40.018Z,87.30
2022-09-28T12:30:22.385Z,88.00
2022-09-28T12:33:15.881Z,88.50
2022-09-28T12:36:34.043Z,88.80
2022-09-28T12:39:31.350Z,89.60
2022-09-28T12:42:34.607Z,89.80
2022-09-28T12:45:38.867Z,88.00
2022-09-28T12:48:42.326Z,88.00
2022-09-28T12:51:36.887Z,84.90
2022-09-28T12:54:26.527Z,85.60
2022-09-28T12:57:44.262Z,79.70
2022-09-28T13:00:22.803Z,76.50
2022-09-28T13:03:23.168Z,77.40
2022-09-28T13:06:36.945Z,79.00
2022-09-28T13:09:20.492Z,78.30
2022-09-28T13:11:54.613Z,80.50
2022-09-28T13:14:37.395Z,80.00
2022-09-28T13:17:43.622Z,79.40
2022-09-28T13:20:25.514Z,78.70
2022-09-28T13:23:16.806Z,77.10
2022-09-28T13:25:57.166Z,78.10
2022-09-28T13:28:27.500Z,79.50
2022-09-28T13:33:40.548Z,79.70
2022-09-28T13:36:28.184Z,77.30
2022-09-28T13:39:00.697Z,77.80
2022-09-28T13:41:35.918Z,79.50
2022-09-28T13:44:17.915Z,80.80
2022-09-28T13:47:21.114Z,84.10
2022-09-28T13:50:22.326Z,85.60
2022-09-28T13:53:06.412Z,86.70
2022-09-28T13:56:10.463Z,88.70
2022-09-28T13:59:21.807Z,89.80
2022-09-28T14:02:19.920Z,91.00
2022-09-28T14:05:27.128Z,91.70
2022-09-28T14:08:09.377Z,91.80
2022-09-28T14:10:46.768Z,92.50
2022-09-28T14:13:42.534Z,93.00
2022-09-28T14:16:18.587Z,93.20
2022-09-28T14:18:59.318Z,94.00
2022-09-28T14:21:44.187Z,94.20
2022-09-28T14:24:11.032Z,94.70
2022-09-28T14:27:17.837Z,94.90
2022-09-28T14:29:45.667Z,94.90
2022-09-28T14:32:12.378Z,95.20
2022-09-28T14:34:46.932Z,95.20
2022-09-28T14:37:52.517Z,95.10
2022-09-28T14:40:49.896Z,95.20
2022-09-28T14:43:44.672Z,95.40
2022-09-28T14:46:11.589Z,95.70
2022-09-28T14:48:55.023Z,95.80
2022-09-28T14:51:25.387Z,95.30
2022-09-28T14:53:54.741Z,94.90
2022-09-28T14:56:22.423Z,95.00
2022-09-28T14:58:57.751Z,95.00
2022-09-28T15:01:26.031Z,95.10
2022-09-28T15:04:00.180Z,95.00
2022-09-28T15:06:44.855Z,94.80
2022-09-28T15:09:35.648Z,94.90
2022-09-28T15:12:16.352Z,95.10
2022-09-28T15:15:17.331Z,95.40
2022-09-28T15:17:58.148Z,95.60
2022-09-28T15:20:36.866Z,95.80
2022-09-28T15:23:03.915Z,95.80
2022-09-28T15:25:32.822Z,95.80
2022-09-28T15:28:13.117Z,95.80
2022-09-28T15:30:40.298Z,95.70
2022-09-28T15:33:44.119Z,95.70
2022-09-28T15:36:26.319Z,95.80
2022-09-28T15:38:59.314Z,95.80
2022-09-28T15:41:27.618Z,95.70
2022-09-28T15:44:33.202Z,95.40
2022-09-28T15:47:25.143Z,95.80
2022-09-28T15:50:05.855Z,95.80
2022-09-28T15:52:53.755Z,96.00
2022-09-28T15:55:34.824Z,96.20
2022-09-28T15:58:22.539Z,96.30
2022-09-28T16:01:12.080Z,96.10
2022-09-28T16:03:39.405Z,96.20
2022-09-28T16:06:09.773Z,96.20
2022-09-28T16:08:36.560Z,96.40
2022-09-28T16:11:18.514Z,95.90
2022-09-28T16:13:54.337Z,95.60
2022-09-28T16:16:29.554Z,95.40
2022-09-28T16:19:00.975Z,95.60
2022-09-28T16:21:46.860Z,95.50
2022-09-28T16:24:30.335Z,95.60
2022-09-28T16:27:08.292Z,95.70
2022-09-28T16:29:42.822Z,95.80
2022-09-28T16:32:38.303Z,95.70
2022-09-28T16:35:11.094Z,95.60
2022-09-28T16:37:42.594Z,95.60
2022-09-28T16:40:11.574Z,95.70
2022-09-28T16:42:44.416Z,95.60
2022-09-28T16:45:23.131Z,95.80
2022-09-28T16:47:53.462Z,95.80
2022-09-28T16:50:22.065Z,96.00
2022-09-28T16:53:32.829Z,96.10
2022-09-28T16:56:00.696Z,96.30
2022-09-28T16:58:28.854Z,96.60
2022-09-28T17:00:56.451Z,96.60
2022-09-28T17:03:24.232Z,96.70
2022-09-28T17:05:52.682Z,97.00
2022-09-28T17:08:23.604Z,96.90
2022-09-28T17:11:14.877Z,97.00
2022-09-28T17:13:45.766Z,96.90
2022-09-28T17:16:42.949Z,97.10
2022-09-28T17:19:22.660Z,97.20
2022-09-28T17:21:51.182Z,97.20
2022-09-28T17:24:19.542Z,97.40
2022-09-28T17:26:50.072Z,97.50
2022-09-28T17:29:17.617Z,97.60
2022-09-28T17:31:46.496Z,97.60
2022-09-28T17:34:16.070Z,97.70
2022-09-28T17:36:44.081Z,97.80
2022-09-28T17:39:13.978Z,97.80
2022-09-28T17:41:41.667Z,97.90
2022-09-28T17:44:08.904Z,97.90
2022-09-28T17:46:47.320Z,97.90
2022-09-28T17:49:15.193Z,97.90
2022-09-28T17:51:42.225Z,97.90
2022-09-28T17:54:09.380Z,97.90
2022-09-28T17:56:36.886Z,98.00
2022-09-28T17:59:18.163Z,98.00
2022-09-28T18:01:45.036Z,98.00
2022-09-28T18:04:33.288Z,98.20
2022-09-28T18:07:00.246Z,98.20
2022-09-28T18:09:27.115Z,98.30
2022-09-28T18:12:00.867Z,98.30
2022-09-28T18:14:28.520Z,98.30
2022-09-28T18:16:55.633Z,98.40
2022-09-28T18:19:22.574Z,98.60
2022-09-28T18:21:49.522Z,98.60
2022-09-28T18:24:16.543Z,98.60
2022-09-28T18:26:43.379Z,98.60
2022-09-28T18:29:10.291Z,98.50
2022-09-28T18:31:37.129Z,98.50
2022-09-28T18:34:03.992Z,98.50
2022-09-28T18:36:33.017Z,98.40
2022-09-28T18:39:01.412Z,98.40
2022-09-28T18:41:29.244Z,98.40
2022-09-28T18:44:00.545Z,98.50
2022-09-28T18:46:29.890Z,98.40
2022-09-28T18:48:57.209Z,98.40
2022-09-28T18:51:24.342Z,98.40
2022-09-28T18:53:51.170Z,98.10
2022-09-28T18:56:19.107Z,98.20
2022-09-28T18:58:47.868Z,98.20
2022-09-28T19:01:30.003Z,98.10
2022-09-28T19:04:07.290Z,98.20
2022-09-28T19:06:37.331Z,98.30
2022-09-28T19:09:04.467Z,98.40
2022-09-28T19:11:31.517Z,98.40
2022-09-28T19:13:58.539Z,98.40
2022-09-28T19:16:28.643Z,98.40
2022-09-28T19:19:02.734Z,98.40
2022-09-28T19:21:30.525Z,98.40
2022-09-28T19:24:01.640Z,98.50
2022-09-28T19:26:30.180Z,98.40
2022-09-28T19:28:58.640Z,98.60
2022-09-28T19:31:26.846Z,98.70
2022-09-28T19:33:53.672Z,98.60
2022-09-28T19:36:23.867Z,98.60
2022-09-28T19:38:53.162Z,98.50
2022-09-28T19:41:44.372Z,98.60
2022-09-28T19:44:27.574Z,98.70
2022-09-28T19:46:58.543Z,98.70
2022-09-28T19:49:27.738Z,98.70
2022-09-28T19:52:12.156Z,98.80
2022-09-28T19:54:56.762Z,98.80
2022-09-28T19:57:30.671Z,98.70
2022-09-28T20:00:02.369Z,98.60
2022-09-28T20:02:33.482Z,98.50
2022-09-28T20:05:00.336Z,98.70
2022-09-28T20:07:27.223Z,98.80
2022-09-28T20:09:54.048Z,98.80
2022-09-28T20:12:20.863Z,98.90
2022-09-28T20:14:47.626Z,98.90
2022-09-28T20:17:14.500Z,98.90
2022-09-28T20:19:41.291Z,98.90
2022-09-28T20:22:08.185Z,98.90
2022-09-28T20:24:34.960Z,98.90
2022-09-28T20:27:02.320Z,98.90
2022-09-28T20:29:31.639Z,98.90
2022-09-28T20:31:58.948Z,98.90
2022-09-28T20:34:25.842Z,99.00
2022-09-28T20:36:52.803Z,99.10
2022-09-28T20:39:19.604Z,99.20
2022-09-28T20:41:48.230Z,99.30
2022-09-28T20:44:15.120Z,99.30
2022-09-28T20:46:44.039Z,99.40
2022-09-28T20:49:11.621Z,99.50
2022-09-28T20:51:38.430Z,99.70
2022-09-28T20:54:05.490Z,99.50
2022-09-28T20:56:38.007Z,99.60
2022-09-28T20:59:11.336Z,99.70
2022-09-28T21:01:39.016Z,99.80
2022-09-28T21:04:08.672Z,99.80
2022-09-28T21:06:39.379Z,99.80
2022-09-28T21:09:09.033Z,99.80
2022-09-28T21:11:36.248Z,99.80
2022-09-28T21:14:06.781Z,99.70
2022-09-28T21:16:35.212Z,99.80
2022-09-28T21:19:03.095Z,99.80
2022-09-28T21:21:30.111Z,99.70
2022-09-28T21:23:58.094Z,99.80
2022-09-28T21:26:28.220Z,99.80
2022-09-28T21:29:10.195Z,99.80
2022-09-28T21:31:41.530Z,99.90
2022-09-28T21:34:20.926Z,99.90
2022-09-28T21:36:51.190Z,99.80
2022-09-28T21:39:18.991Z,99.70
2022-09-28T21:41:46.339Z,99.70
2022-09-28T21:44:13.241Z,99.70
2022-09-28T21:46:40.152Z,99.80
2022-09-28T21:49:08.290Z,99.80
2022-09-28T21:51:36.441Z,99.90
2022-09-28T21:54:03.796Z,99.90
2022-09-28T21:56:30.673Z,99.90
2022-09-28T21:58:57.521Z,99.90
2022-09-28T22:01:25.992Z,99.90
2022-09-28T22:03:56.421Z,99.80
2022-09-28T22:06:29.134Z,99.90
2022-09-28T22:08:57.162Z,99.80
2022-09-28T22:11:28.537Z,99.80
2022-09-28T22:13:58.606Z,99.80
2022-09-28T22:16:30.474Z,99.70
2022-09-28T22:18:59.088Z,99.80
2022-09-28T22:21:32.608Z,99.80
2022-09-28T22:24:02.492Z,99.80
2022-09-28T22:26:31.861Z,99.90
2022-09-28T22:29:06.232Z,99.90
2022-09-28T22:31:40.370Z,99.90
2022-09-28T22:34:09.378Z,99.90
2022-09-28T22:36:36.339Z,99.90
2022-09-28T22:39:04.476Z,99.90
2022-09-28T22:41:32.075Z,99.90
2022-09-28T22:43:59.335Z,99.90
2022-09-28T22:46:31.672Z,99.90
2022-09-28T22:49:00.590Z,99.90
2022-09-28T22:51:29.740Z,99.90
2022-09-28T22:53:57.438Z,99.90
2022-09-28T22:56:25.083Z,99.90
2022-09-28T22:58:51.988Z,99.90
2022-09-28T23:01:27.604Z,99.90
2022-09-28T23:03:56.500Z,99.90
2022-09-28T23:06:27.708Z,99.90
2022-09-28T23:08:54.831Z,99.90
2022-09-28T23:11:21.909Z,99.90
2022-09-28T23:13:51.219Z,99.90
2022-09-28T23:16:19.254Z,99.90
2022-09-28T23:18:46.437Z,99.80
2022-09-28T23:21:17.476Z,99.80
2022-09-28T23:23:47.071Z,99.70
2022-09-28T23:26:17.500Z,99.70
2022-09-28T23:28:45.356Z,99.60
2022-09-28T23:31:23.105Z,99.70
2022-09-28T23:33:51.129Z,99.60
2022-09-28T23:36:18.658Z,99.60
2022-09-28T23:38:45.582Z,99.60
2022-09-28T23:41:12.472Z,99.60
2022-09-28T23:43:39.331Z,99.50
2022-09-28T23:46:06.722Z,99.50
2022-09-28T23:48:34.131Z,99.50
2022-09-28T23:51:02.100Z,99.60
2022-09-28T23:53:29.863Z,99.50
2022-09-28T23:55:56.728Z,99.40
2022-09-28T23:58:25.610Z,99.40
